Time;durP1;ratioP1;P1;durP2;ratioP2;P2;SDS_P1;SDS_P2;PMS_P1;PMS_P2;Temp;Humidity;BMP_temperature;BMP_pressure;BME280_temperature;BME280_humidity;BME280_pressure;Samples;Min_cycle;Max_cycle;Signal;HPM_P1;HPM_P2
2021/08/12 00:01:11;;;;;;;8.20;3.75;;;;;;;;;;5059529;28;20025;-79
2021/08/12 00:03:37;;;;;;;5.70;3.78;;;;;;;;;;5052268;28;20128;-79
2021/08/12 00:06:03;;;;;;;6.07;4.10;;;18.60;99.90;;;;;;5059162;28;20052;-79
2021/08/12 00:08:29;;;;;;;7.18;4.32;;;18.60;99.90;;;;;;5049868;28;20364;-81
2021/08/12 00:10:55;;;;;;;6.75;3.88;;;;;;;;;;5053096;28;20025;-81
2021/08/12 00:13:20;;;;;;;8.30;4.50;;;18.60;99.90;;;;;;5050060;28;20449;-81
2021/08/12 00:15:47;;;;;;;7.10;4.00;;;18.60;99.90;;;;;;5049830;28;20024;-80
2021/08/12 00:18:13;;;;;;;6.30;4.20;;;18.60;99.90;;;;;;5050628;28;20064;-82
2021/08/12 00:20:39;;;;;;;8.00;4.13;;;18.50;99.90;;;;;;5054609;28;20022;-78
2021/08/12 00:23:05;;;;;;;7.22;3.67;;;;;;;;;;5058264;28;20021;-81
2021/08/12 00:25:32;;;;;;;6.90;4.32;;;18.50;99.90;;;;;;5076226;28;20020;-82
2021/08/12 00:27:58;;;;;;;9.57;4.00;;;;;;;;;;5062972;28;20029;-79
2021/08/12 00:30:23;;;;;;;7.47;4.03;;;18.40;99.90;;;;;;5059122;28;20078;-81
2021/08/12 00:32:49;;;;;;;7.07;4.03;;;;;;;;;;5060836;28;20025;-81
2021/08/12 00:35:18;;;;;;;6.72;3.58;;;18.40;99.90;;;;;;5058018;28;20084;-79
2021/08/12 00:37:44;;;;;;;7.97;4.05;;;18.40;99.90;;;;;;5061399;28;20513;-80
2021/08/12 00:40:13;;;;;;;6.25;3.40;;;18.30;99.90;;;;;;5055791;28;20022;-79
2021/08/12 00:42:39;;;;;;;6.03;4.15;;;;;;;;;;5052332;28;20078;-82
2021/08/12 00:45:05;;;;;;;9.00;4.50;;;18.30;99.90;;;;;;5062550;28;21468;-79
2021/08/12 00:47:31;;;;;;;11.23;5.55;;;;;;;;;;5054291;28;20658;-81
2021/08/12 00:49:57;;;;;;;8.68;4.10;;;;;;;;;;5047995;28;20872;-81
2021/08/12 00:52:24;;;;;;;6.88;3.90;;;18.30;99.90;;;;;;5049352;28;20029;-80
2021/08/12 00:54:50;;;;;;;7.70;4.05;;;;;;;;;;5074893;28;20090;-83
2021/08/12 00:57:19;;;;;;;7.28;4.30;;;18.20;99.90;;;;;;5061274;28;20024;-82
2021/08/12 00:59:45;;;;;;;5.90;3.92;;;18.20;99.90;;;;;;5070342;28;20021;-79
2021/08/12 01:02:14;;;;;;;7.82;3.88;;;18.10;99.90;;;;;;5046581;28;20459;-80
2021/08/12 01:04:44;;;;;;;6.82;4.13;;;18.10;99.90;;;;;;5055886;28;20025;-82
2021/08/12 01:07:26;;;;;;;9.05;4.43;;;18.10;99.90;;;;;;5051600;28;20029;-83
2021/08/12 01:10:12;;;;;;;7.57;4.38;;;18.10;99.90;;;;;;5057382;28;20031;-81
2021/08/12 01:12:50;;;;;;;6.18;3.97;;;18.10;99.90;;;;;;5044582;28;20021;-80
2021/08/12 01:15:50;;;;;;;6.78;3.90;;;18.10;99.90;;;;;;5057796;28;20028;-82
2021/08/12 01:18:36;;;;;;;6.82;3.97;;;18.10;99.90;;;;;;5024511;28;20032;-82
2021/08/12 01:21:20;;;;;;;9.18;3.83;;;18.00;99.90;;;;;;5066765;28;20151;-82
2021/08/12 01:23:46;;;;;;;7.57;3.90;;;18.00;99.90;;;;;;5054718;28;20410;-82
2021/08/12 01:26:14;;;;;;;6.97;4.45;;;17.90;99.90;;;;;;5058583;28;20078;-83
2021/08/12 01:28:44;;;;;;;9.38;4.63;;;17.90;99.90;;;;;;5056508;28;20048;-82
2021/08/12 01:31:20;;;;;;;8.07;4.18;;;17.90;99.90;;;;;;5046192;28;20035;-81
2021/08/12 01:33:59;;;;;;;6.93;3.90;;;17.90;99.90;;;;;;5041895;28;20033;-80
2021/08/12 01:36:27;;;;;;;6.97;4.28;;;16.00;99.90;;;;;;5052393;28;20017;-81
2021/08/12 01:38:55;;;;;;;6.43;3.90;;;17.80;99.90;;;;;;5073193;28;20531;-81
2021/08/12 01:41:22;;;;;;;8.55;4.32;;;17.80;99.90;;;;;;5059490;28;20048;-78
2021/08/12 01:43:48;;;;;;;7.90;4.18;;;;;;;;;;5041969;28;20045;-80
2021/08/12 01:46:15;;;;;;;6.72;3.95;;;17.80;99.90;;;;;;5052579;28;20052;-81
2021/08/12 01:48:41;;;;;;;6.85;4.03;;;;;;;;;;5050835;28;20116;-82
2021/08/12 01:51:07;;;;;;;9.73;3.90;;;17.80;99.90;;;;;;5053405;28;20069;-82
2021/08/12 01:53:34;;;;;;;9.02;4.25;;;17.70;99.90;;;;;;5052948;28;20057;-83
2021/08/12 01:56:01;;;;;;;9.55;4.32;;;17.70;99.90;;;;;;5059348;28;20103;-81
2021/08/12 01:58:28;;;;;;;7.95;4.07;;;17.60;99.90;;;;;;5046055;28;20036;-82
2021/08/12 02:00:56;;;;;;;6.38;3.80;;;17.60;99.90;;;;;;5050082;28;20127;-82
2021/08/12 02:03:24;;;;;;;6.75;3.50;;;17.60;99.90;;;;;;5072267;28;20094;-82
2021/08/12 02:05:51;;;;;;;7.25;4.03;;;18.30;99.90;;;;;;5055341;28;20029;-80
2021/08/12 02:08:23;;;;;;;6.90;3.72;;;17.60;99.90;;;;;;5060420;28;20478;-80
2021/08/12 02:10:50;;;;;;;7.15;4.22;;;17.60;99.90;;;;;;5046104;28;20609;-79
2021/08/12 02:13:17;;;;;;;5.93;3.95;;;;;;;;;;5072395;28;20027;-84
2021/08/12 02:15:43;;;;;;;7.82;4.00;;;;;;;;;;5055647;28;20383;-81
2021/08/12 02:18:09;;;;;;;7.45;3.92;;;17.50;99.90;;;;;;5052569;28;20044;-83
2021/08/12 02:20:38;;;;;;;7.70;4.13;;;17.60;99.90;;;;;;5056233;28;20029;-81
2021/08/12 02:23:04;;;;;;;6.88;3.85;;;;;;;;;;5065909;28;20029;-82
2021/08/12 02:25:40;;;;;;;6.47;4.40;;;17.50;99.90;;;;;;5056159;28;20437;-80
2021/08/12 02:28:08;;;;;;;6.65;4.15;;;17.40;99.90;;;;;;5055450;28;20033;-82
2021/08/12 02:30:36;;;;;;;8.10;4.40;;;17.40;99.90;;;;;;5060143;28;20025;-81
2021/08/12 02:33:03;;;;;;;7.55;4.30;;;19.10;99.90;;;;;;5058535;28;20537;-83
2021/08/12 02:35:30;;;;;;;7.20;4.30;;;17.40;99.90;;;;;;5061859;28;20017;-84
2021/08/12 02:37:57;;;;;;;9.25;4.57;;;17.40;99.90;;;;;;5059882;28;20142;-82
2021/08/12 02:40:26;;;;;;;7.47;3.95;;;17.40;99.90;;;;;;5063623;28;20048;-83
2021/08/12 02:42:53;;;;;;;7.28;4.38;;;17.30;99.90;;;;;;5078714;28;20474;-83
2021/08/12 02:45:19;;;;;;;8.55;3.85;;;;;;;;;;5069525;28;20012;-81
2021/08/12 02:47:46;;;;;;;9.70;4.60;;;17.30;99.90;;;;;;5078452;28;20036;-82
2021/08/12 02:50:12;;;;;;;6.65;3.58;;;;;;;;;;5061236;28;20049;-84
2021/08/12 02:52:40;;;;;;;7.28;3.88;;;;;;;;;;5054981;28;20499;-81
2021/08/12 02:55:07;;;;;;;7.15;4.10;;;;;;;;;;5057948;28;20029;-80
2021/08/12 02:57:33;;;;;;;7.45;4.30;;;;;;;;;;5067519;28;20021;-80
2021/08/12 02:59:59;;;;;;;8.88;4.15;;;;;;;;;;5063533;28;20098;-79
2021/08/12 03:02:25;;;;;;;6.28;3.72;;;;;;;;;;5068570;28;20033;-82
2021/08/12 03:04:51;;;;;;;5.95;4.15;;;17.20;99.90;;;;;;5061744;28;20044;-81
2021/08/12 03:07:18;;;;;;;7.95;4.00;;;17.30;99.90;;;;;;5081243;28;20650;-81
2021/08/12 03:09:48;;;;;;;9.75;4.38;;;17.10;99.90;;;;;;5059799;28;20059;-82
2021/08/12 03:12:15;;;;;;;8.20;4.05;;;;;;;;;;5060459;28;20032;-81
2021/08/12 03:14:41;;;;;;;7.78;4.03;;;17.10;99.90;;;;;;5059488;28;20033;-82
2021/08/12 03:17:11;;;;;;;5.97;3.90;;;17.10;99.90;;;;;;5058554;28;20037;-79
2021/08/12 03:19:38;;;;;;;6.55;3.72;;;17.20;99.90;;;;;;5058606;28;20044;-77
2021/08/12 03:22:09;;;;;;;5.75;3.92;;;17.10;99.90;;;;;;5060193;28;20025;-79
2021/08/12 03:24:37;;;;;;;6.72;3.85;;;17.20;99.90;;;;;;5053542;28;20017;-79
2021/08/12 03:27:03;;;;;;;8.38;4.32;;;17.10;99.90;;;;;;5061855;28;20043;-80
2021/08/12 03:29:29;;;;;;;7.30;4.35;;;17.10;99.90;;;;;;5060184;28;20538;-79
2021/08/12 03:31:54;;;;;;;8.10;4.10;;;17.10;99.90;;;;;;5059067;28;20063;-80
2021/08/12 03:34:20;;;;;;;7.13;4.13;;;17.10;99.90;;;;;;5058857;28;20086;-81
2021/08/12 03:36:45;;;;;;;8.77;4.57;;;17.20;99.90;;;;;;5059731;28;20029;-78
2021/08/12 03:39:11;;;;;;;8.63;4.30;;;17.10;99.90;;;;;;5059921;28;20024;-82
2021/08/12 03:41:37;;;;;;;6.20;4.10;;;20.00;99.90;;;;;;5061278;28;20029;-82
2021/08/12 03:44:03;;;;;;;7.55;4.25;;;18.70;99.90;;;;;;5058013;28;20013;-81
2021/08/12 03:46:29;;;;;;;7.65;4.20;;;;;;;;;;5059068;28;20052;-80
2021/08/12 03:48:55;;;;;;;8.15;4.50;;;17.00;99.90;;;;;;5058139;28;20033;-81
2021/08/12 03:51:20;;;;;;;10.25;5.28;;;17.00;99.90;;;;;;5062696;28;20024;-79
2021/08/12 03:53:46;;;;;;;6.90;4.07;;;;;;;;;;5052255;28;20250;-79
2021/08/12 03:56:15;;;;;;;6.60;4.10;;;17.00;99.90;;;;;;5057264;28;20025;-81
2021/08/12 03:58:40;;;;;;;6.15;4.45;;;19.30;99.90;;;;;;5058964;28;20025;-82
2021/08/12 04:01:06;;;;;;;7.97;4.20;;;17.00;99.90;;;;;;5061720;28;20154;-81
2021/08/12 04:03:33;;;;;;;5.57;3.92;;;17.00;99.90;;;;;;5059736;28;20032;-79
2021/08/12 04:05:58;;;;;;;7.00;4.30;;;17.00;99.90;;;;;;5053869;28;20028;-83
2021/08/12 04:08:24;;;;;;;8.07;4.13;;;;;;;;;;5059731;28;20401;-84
2021/08/12 04:10:50;;;;;;;8.05;4.25;;;16.80;99.90;;;;;;5058140;28;20031;-82
2021/08/12 04:13:17;;;;;;;9.90;4.75;;;;;;;;;;5063880;28;20111;-81
2021/08/12 04:15:42;;;;;;;8.38;5.05;;;16.70;99.90;;;;;;5063343;28;20452;-77
2021/08/12 04:18:08;;;;;;;9.40;4.93;;;;;;;;;;5058268;28;20037;-79
2021/08/12 04:20:35;;;;;;;8.95;5.55;;;;;;;;;;5069425;28;20033;-81
2021/08/12 04:23:00;;;;;;;11.15;5.20;;;16.80;99.90;;;;;;5060104;28;20116;-82
2021/08/12 04:25:26;;;;;;;9.57;5.68;;;;;;;;;;5062023;28;20048;-82
2021/08/12 04:27:52;;;;;;;8.68;5.55;;;;;;;;;;5062418;28;20509;-82
2021/08/12 04:30:20;;;;;;;8.32;5.00;;;16.80;99.90;;;;;;5051958;28;20029;-83
2021/08/12 04:32:46;;;;;;;8.73;5.20;;;16.80;99.90;;;;;;5052257;28;20036;-79
2021/08/12 04:35:12;;;;;;;6.90;4.47;;;;;;;;;;5059648;28;20021;-81
2021/08/12 04:37:45;;;;;;;9.48;4.43;;;16.80;99.90;;;;;;5054431;28;20059;-82
2021/08/12 04:40:16;;;;;;;7.07;4.13;;;16.80;99.90;;;;;;5076182;28;20021;-82
2021/08/12 04:42:42;;;;;;;6.80;4.07;;;16.80;99.90;;;;;;5057974;28;20542;-81
2021/08/12 04:45:09;;;;;;;7.07;4.35;;;16.80;99.90;;;;;;5054269;28;20140;-81
2021/08/12 04:47:35;;;;;;;6.97;4.00;;;16.80;99.90;;;;;;5049959;28;20017;-82
2021/08/12 04:50:01;;;;;;;6.55;3.97;;;16.80;99.90;;;;;;5055051;28;20445;-82
2021/08/12 04:52:27;;;;;;;8.45;4.65;;;;;;;;;;5055844;28;20051;-82
2021/08/12 04:54:53;;;;;;;6.47;4.18;;;16.80;99.90;;;;;;5047816;28;20097;-82
2021/08/12 04:57:19;;;;;;;7.57;4.55;;;;;;;;;;5057180;28;20063;-83
2021/08/12 04:59:45;;;;;;;8.93;4.47;;;;;;;;;;5042810;28;20033;-79
2021/08/12 05:02:11;;;;;;;7.03;4.38;;;;;;;;;;5052165;28;20025;-79
2021/08/12 05:04:36;;;;;;;9.68;4.47;;;;;;;;;;5059766;28;20027;-81
2021/08/12 05:07:02;;;;;;;10.27;4.72;;;16.80;99.90;;;;;;5048389;28;20101;-79
2021/08/12 05:09:28;;;;;;;6.50;4.18;;;16.80;99.90;;;;;;5062366;28;20023;-81
2021/08/12 05:11:53;;;;;;;7.15;4.65;;;16.90;99.90;;;;;;5048593;28;20124;-81
2021/08/12 05:14:20;;;;;;;10.38;4.05;;;;;;;;;;5055739;28;20174;-80
2021/08/12 05:16:45;;;;;;;8.02;4.50;;;16.90;99.90;;;;;;5065947;28;20033;-84
2021/08/12 05:19:11;;;;;;;7.90;3.97;;;17.00;99.90;;;;;;5049205;28;20039;-81
2021/08/12 05:21:37;;;;;;;7.47;4.15;;;;;;;;;;5058572;28;20032;-80
2021/08/12 05:24:03;;;;;;;7.57;4.30;;;17.10;99.90;;;;;;5063843;28;20053;-81
2021/08/12 05:26:28;;;;;;;8.80;4.15;;;17.10;99.90;;;;;;5071760;28;20501;-81
2021/08/12 05:28:54;;;;;;;8.32;4.65;;;17.20;99.90;;;;;;5057449;28;20040;-80
2021/08/12 05:31:20;;;;;;;9.35;5.05;;;17.20;99.90;;;;;;5066426;28;20017;-81
2021/08/12 05:33:46;;;;;;;7.45;4.97;;;17.30;99.90;;;;;;5065369;28;20028;-82
2021/08/12 05:36:12;;;;;;;9.43;5.75;;;;;;;;;;5052453;28;20479;-81
2021/08/12 05:38:38;;;;;;;8.95;5.25;;;;;;;;;;5058025;28;20116;-81
2021/08/12 05:41:04;;;;;;;8.45;5.07;;;;;;;;;;5057403;28;20368;-80
2021/08/12 05:43:30;;;;;;;7.35;4.57;;;17.50;99.90;;;;;;5053731;28;20049;-79
2021/08/12 05:45:55;;;;;;;8.98;4.90;;;17.60;99.90;;;;;;5061255;28;20017;-79
2021/08/12 05:48:21;;;;;;;7.13;4.50;;;17.80;99.90;;;;;;5075199;28;20023;-78
2021/08/12 05:50:48;;;;;;;7.85;4.25;;;17.80;99.90;;;;;;5072651;28;20047;-80
2021/08/12 05:53:18;;;;;;;7.55;4.88;;;18.00;99.90;;;;;;5049779;28;20056;-80
2021/08/12 05:55:44;;;;;;;;;;;18.20;99.90;;;;;;5079968;28;20055;-80
2021/08/12 05:58:10;;;;;;;8.40;4.90;;;18.40;99.90;;;;;;5058663;28;19991;-80
2021/08/12 06:00:36;;;;;;;9.55;5.05;;;;;;;;;;5054001;28;20040;-78
2021/08/12 06:03:10;;;;;;;8.43;5.13;;;18.30;99.90;;;;;;5057510;28;20026;-79
2021/08/12 06:05:36;;;;;;;7.53;4.65;;;18.30;99.90;;;;;;5060481;28;20032;-77
2021/08/12 06:08:04;;;;;;;10.23;5.22;;;18.30;99.90;;;;;;5058791;28;20112;-82
2021/08/12 06:10:30;;;;;;;7.20;4.63;;;18.40;99.90;;;;;;5062737;28;20162;-80
2021/08/12 06:12:56;;;;;;;7.88;4.70;;;18.50;99.90;;;;;;5059236;28;20427;-81
2021/08/12 06:15:23;;;;;;;9.25;4.80;;;19.50;99.90;;;;;;5069274;28;20035;-80
2021/08/12 06:17:48;;;;;;;7.93;4.22;;;18.60;99.90;;;;;;5064656;28;20033;-81
2021/08/12 06:20:14;;;;;;;9.75;4.78;;;18.80;99.90;;;;;;5052646;28;20548;-81
2021/08/12 06:22:40;;;;;;;7.53;4.35;;;20.00;99.90;;;;;;5052903;28;20036;-80
2021/08/12 06:25:06;;;;;;;8.68;4.93;;;19.00;99.90;;;;;;5057688;28;20021;-79
2021/08/12 06:27:31;;;;;;;8.05;4.82;;;18.80;99.90;;;;;;5056443;28;20017;-79
2021/08/12 06:29:57;;;;;;;11.73;5.22;;;18.90;99.90;;;;;;5066291;28;20027;-80
2021/08/12 06:32:27;;;;;;;9.45;4.68;;;19.00;99.90;;;;;;5059014;28;20092;-81
2021/08/12 06:34:53;;;;;;;;;;;19.00;99.90;;;;;;5057447;28;20080;-80
2021/08/12 06:37:19;;;;;;;7.78;4.32;;;;;;;;;;5057893;28;19912;-80
2021/08/12 06:39:45;;;;;;;9.75;4.80;;;;;;;;;;5053113;28;20040;-78
2021/08/12 06:42:10;;;;;;;7.18;4.40;;;19.20;99.90;;;;;;5047906;28;20033;-77
2021/08/12 06:44:36;;;;;;;7.88;4.85;;;19.30;99.90;;;;;;5044944;28;20030;-77
2021/08/12 06:47:02;;;;;;;7.47;4.35;;;19.30;99.90;;;;;;5053366;28;20076;-80
2021/08/12 06:49:28;;;;;;;9.45;4.82;;;19.30;99.90;;;;;;5047206;28;20025;-79
2021/08/12 06:51:54;;;;;;;7.57;4.60;;;19.30;99.90;;;;;;5049442;28;20022;-77
2021/08/12 06:54:20;;;;;;;8.15;4.80;;;20.40;99.90;;;;;;5056302;28;20112;-80
2021/08/12 06:56:45;;;;;;;8.30;5.03;;;21.50;99.90;;;;;;5050774;28;20051;-80
2021/08/12 06:59:11;;;;;;;9.65;4.93;;;19.70;99.90;;;;;;5055986;28;20040;-79
2021/08/12 07:01:36;;;;;;;8.48;4.70;;;19.80;99.90;;;;;;5051008;28;20030;-80
2021/08/12 07:04:02;;;;;;;7.63;4.93;;;19.90;99.90;;;;;;5051629;28;20609;-81
2021/08/12 07:06:28;;;;;;;10.55;5.13;;;19.90;99.90;;;;;;5056589;28;20035;-79
2021/08/12 07:08:54;;;;;;;6.97;4.25;;;20.20;99.90;;;;;;5072004;28;20026;-79
2021/08/12 07:11:22;;;;;;;7.95;5.15;;;20.20;99.90;;;;;;5048274;28;20050;-79
2021/08/12 07:13:49;;;;;;;8.10;4.60;;;20.90;99.90;;;;;;5050906;28;20031;-79
2021/08/12 07:16:17;;;;;;;7.72;4.35;;;20.50;99.90;;;;;;5053403;28;20025;-78
2021/08/12 07:18:43;;;;;;;8.60;4.45;;;20.60;99.90;;;;;;5056385;28;20021;-76
2021/08/12 07:21:13;;;;;;;9.07;4.47;;;20.70;99.90;;;;;;5064075;28;20521;-78
2021/08/12 07:23:42;;;;;;;10.43;4.97;;;20.80;99.90;;;;;;5051917;28;20087;-78
2021/08/12 07:26:12;;;;;;;8.85;5.00;;;20.90;99.90;;;;;;5047464;28;20041;-78
2021/08/12 07:28:41;;;;;;;7.47;5.07;;;21.00;99.90;;;;;;5056784;28;20478;-77
2021/08/12 07:31:08;;;;;;;11.05;4.95;;;21.00;99.90;;;;;;5051726;28;20028;-79
2021/08/12 07:33:34;;;;;;;10.50;4.50;;;21.20;99.90;;;;;;5045500;28;20041;-80
2021/08/12 07:35:59;;;;;;;11.15;4.25;;;21.30;99.90;;;;;;5050417;28;20043;-79
2021/08/12 07:38:25;;;;;;;12.52;5.70;;;21.40;99.90;;;;;;5045871;28;20029;-81
2021/08/12 07:40:51;;;;;;;10.48;4.40;;;21.60;99.90;;;;;;5057467;28;20243;-82
2021/08/12 07:43:16;;;;;;;10.07;5.05;;;22.90;99.90;;;;;;5063095;28;20557;-78
2021/08/12 07:45:42;;;;;;;9.32;5.32;;;22.60;99.90;;;;;;5058916;28;20056;-78
2021/08/12 07:48:08;;;;;;;11.73;4.90;;;22.20;99.90;;;;;;5051989;28;20025;-81
2021/08/12 07:50:33;;;;;;;11.63;4.53;;;22.30;99.90;;;;;;5056373;28;20021;-79
2021/08/12 07:52:59;;;;;;;10.07;4.97;;;22.30;99.90;;;;;;5071007;28;20040;-78
2021/08/12 07:55:24;;;;;;;9.43;4.57;;;22.30;99.90;;;;;;5056531;28;20170;-82
2021/08/12 07:57:50;;;;;;;10.23;4.65;;;22.40;99.90;;;;;;5061977;28;20032;-80
2021/08/12 08:00:16;;;;;;;7.88;4.00;;;22.60;99.90;;;;;;5064732;28;20012;-80
2021/08/12 08:02:43;;;;;;;6.88;3.83;;;22.70;99.90;;;;;;5061868;28;20056;-81
2021/08/12 08:05:13;;;;;;;8.80;4.20;;;22.90;99.90;;;;;;5056405;28;20036;-79
2021/08/12 08:07:38;;;;;;;10.10;4.80;;;23.00;99.90;;;;;;5049340;28;20033;-80
2021/08/12 08:10:06;;;;;;;11.20;6.25;;;23.10;99.90;;;;;;5056422;28;20755;-79
2021/08/12 08:12:31;;;;;;;8.50;4.93;;;23.30;99.90;;;;;;5051750;28;20082;-78
2021/08/12 08:14:57;;;;;;;6.60;4.00;;;23.40;99.90;;;;;;5050642;28;20040;-79
2021/08/12 08:17:22;;;;;;;12.18;4.78;;;23.50;99.90;;;;;;5049902;28;20091;-80
2021/08/12 08:19:48;;;;;;;11.25;4.63;;;23.60;99.90;;;;;;5046284;28;20031;-79
2021/08/12 08:22:14;;;;;;;9.95;5.68;;;23.80;99.90;;;;;;5060709;28;20024;-78
2021/08/12 08:24:39;;;;;;;8.20;4.07;;;23.90;99.90;;;;;;5063795;28;20394;-81
2021/08/12 08:27:05;;;;;;;8.25;3.85;;;24.00;99.90;;;;;;5052661;28;20035;-79
2021/08/12 08:29:30;;;;;;;8.90;4.40;;;24.20;99.90;;;;;;5053280;28;20066;-80
2021/08/12 08:31:56;;;;;;;7.35;3.92;;;24.30;99.90;;;;;;5059993;28;20614;-78
2021/08/12 08:34:22;;;;;;;8.25;4.20;;;24.50;99.90;;;;;;5043983;28;20039;-80
2021/08/12 08:36:47;;;;;;;10.48;4.35;;;24.50;99.60;;;;;;5056636;28;20398;-82
2021/08/12 08:39:13;;;;;;;8.88;4.28;;;24.50;99.40;;;;;;5051833;28;20040;-82
2021/08/12 08:41:39;;;;;;;7.30;3.70;;;24.60;99.70;;;;;;5064031;28;20126;-81
2021/08/12 08:44:08;;;;;;;8.52;4.57;;;26.90;99.90;;;;;;5060670;28;20033;-80
2021/08/12 08:46:34;;;;;;;7.60;4.40;;;24.90;99.00;;;;;;5050797;28;20032;-80
2021/08/12 08:49:02;;;;;;;7.72;4.43;;;25.00;97.90;;;;;;5061479;28;20029;-82
2021/08/12 08:51:27;;;;;;;8.50;4.30;;;25.10;97.80;;;;;;5055498;28;20394;-80
2021/08/12 08:53:54;;;;;;;9.68;4.40;;;25.20;97.70;;;;;;5053362;28;20021;-79
2021/08/12 08:56:21;;;;;;;7.78;3.83;;;25.30;97.60;;;;;;5062756;28;20031;-81
2021/08/12 08:58:47;;;;;;;6.97;3.60;;;25.70;97.60;;;;;;5051963;28;20075;-82
2021/08/12 09:01:12;;;;;;;8.32;3.90;;;25.70;96.10;;;;;;5064245;28;20036;-82
2021/08/12 09:03:38;;;;;;;7.00;3.47;;;25.60;95.70;;;;;;5052108;28;20088;-78
2021/08/12 09:06:09;;;;;;;5.38;3.53;;;25.90;95.80;;;;;;5044253;28;20025;-80
2021/08/12 09:08:35;;;;;;;9.02;4.70;;;25.90;95.40;;;;;;5060485;28;20474;-80
2021/08/12 09:11:01;;;;;;;5.88;3.80;;;26.10;95.30;;;;;;5058035;28;20025;-79
2021/08/12 09:13:30;;;;;;;6.18;3.70;;;26.30;94.70;;;;;;5055932;28;20463;-79
2021/08/12 09:15:56;;;;;;;6.95;3.42;;;26.40;94.20;;;;;;5046773;28;20029;-80
2021/08/12 09:18:26;;;;;;;5.47;3.38;;;26.40;93.80;;;;;;5052052;28;20033;-80
2021/08/12 09:21:16;;;;;;;7.75;3.50;;;26.40;93.10;;;;;;5054878;28;20127;-79
2021/08/12 09:23:42;;;;;;;9.13;3.95;;;26.50;93.30;;;;;;5049563;28;20127;-82
2021/08/12 09:26:19;;;;;;;5.43;3.83;;;26.50;93.10;;;;;;5042203;28;20053;-79
2021/08/12 09:28:45;;;;;;;6.70;3.78;;;26.70;92.80;;;;;;5047135;28;20160;-80
2021/08/12 09:31:11;;;;;;;5.93;3.45;;;26.80;92.00;;;;;;5056488;28;20037;-78
2021/08/12 09:33:40;;;;;;;4.88;3.38;;;26.80;91.80;;;;;;5057675;28;20449;-82
2021/08/12 09:36:19;;;;;;;10.40;4.10;;;26.90;91.90;;;;;;5052864;28;20043;-79
2021/08/12 09:38:44;;;;;;;4.80;3.38;;;27.10;92.20;;;;;;5049780;28;20028;-78
2021/08/12 09:41:10;;;;;;;11.02;3.58;;;26.90;90.60;;;;;;5042740;28;20025;-81
2021/08/12 09:43:36;;;;;;;11.27;3.78;;;27.00;90.90;;;;;;5049847;28;20048;-80
2021/08/12 09:46:05;;;;;;;6.72;3.58;;;27.10;90.80;;;;;;5053594;28;20025;-79
2021/08/12 09:48:31;;;;;;;6.55;4.03;;;27.10;90.70;;;;;;5052118;28;20025;-80
2021/08/12 09:51:09;;;;;;;7.25;3.60;;;28.40;91.30;;;;;;5052458;28;20033;-80
2021/08/12 09:53:35;;;;;;;7.38;4.15;;;27.30;90.90;;;;;;5060626;28;20040;-80
2021/08/12 09:56:09;;;;;;;7.53;3.45;;;27.40;90.20;;;;;;5057873;28;20035;-81
2021/08/12 09:58:36;;;;;;;7.20;3.42;;;27.40;88.70;;;;;;5054178;28;20463;-79
2021/08/12 10:01:20;;;;;;;6.13;3.50;;;27.50;87.90;;;;;;5041427;28;20034;-79
2021/08/12 10:03:45;;;;;;;4.63;3.45;;;27.70;88.60;;;;;;5054000;28;20035;-79
2021/08/12 10:06:20;;;;;;;5.72;3.33;;;27.70;86.40;;;;;;5049875;28;20465;-80
2021/08/12 10:08:46;;;;;;;4.90;2.92;;;27.60;85.70;;;;;;5052855;28;20037;-81
2021/08/12 10:11:24;;;;;;;6.53;3.17;;;27.80;86.50;;;;;;5071360;28;20029;-78
2021/08/12 10:13:54;;;;;;;7.03;3.47;;;27.80;86.20;;;;;;5052927;28;20502;-79
2021/08/12 10:16:20;;;;;;;7.03;3.72;;;27.70;86.50;;;;;;5050956;28;20370;-79
2021/08/12 10:18:47;;;;;;;5.80;3.40;;;27.70;84.40;;;;;;5052050;28;20034;-78
2021/08/12 10:21:15;;;;;;;6.15;3.47;;;27.70;83.20;;;;;;5040578;28;20029;-81
2021/08/12 10:23:41;;;;;;;5.07;3.58;;;27.60;82.00;;;;;;5043456;28;20025;-80
2021/08/12 10:26:07;;;;;;;10.23;4.07;;;27.50;82.60;;;;;;5053180;28;20135;-80
2021/08/12 10:28:35;;;;;;;6.95;3.95;;;27.70;83.70;;;;;;5058543;28;20037;-81
2021/08/12 10:31:06;;;;;;;5.45;3.58;;;27.70;83.20;;;;;;5053634;28;20037;-80
2021/08/12 10:33:33;;;;;;;7.63;3.80;;;27.90;83.60;;;;;;5049847;28;20022;-80
2021/08/12 10:36:00;;;;;;;7.50;3.85;;;28.10;82.90;;;;;;5050511;28;20067;-80
2021/08/12 10:38:26;;;;;;;6.47;3.42;;;28.20;82.00;;;;;;5059443;28;20021;-79
2021/08/12 10:40:52;;;;;;;5.40;3.75;;;28.30;81.90;;;;;;5048368;28;20029;-81
2021/08/12 10:43:21;;;;;;;7.80;3.95;;;28.10;82.40;;;;;;5056866;28;20028;-82
2021/08/12 10:45:58;;;;;;;6.82;3.63;;;28.40;81.50;;;;;;5055569;28;20483;-78
2021/08/12 10:48:25;;;;;;;5.47;3.45;;;28.30;81.80;;;;;;5078171;28;20104;-81
2021/08/12 10:51:11;;;;;;;8.75;3.38;;;28.30;82.30;;;;;;5062458;28;20032;-78
2021/08/12 10:53:44;;;;;;;6.20;3.50;;;28.30;81.90;;;;;;5058208;28;20046;-80
2021/08/12 10:56:15;;;;;;;6.13;4.00;;;28.40;81.60;;;;;;5048435;28;20446;-78
2021/08/12 10:58:43;;;;;;;7.20;3.60;;;28.40;81.20;;;;;;5050001;28;20029;-79
2021/08/12 11:01:30;;;;;;;6.63;3.72;;;28.60;80.50;;;;;;5046521;28;20029;-77
2021/08/12 11:04:01;;;;;;;5.07;3.50;;;28.80;80.80;;;;;;5046724;28;20502;-79
2021/08/12 11:06:44;;;;;;;5.60;3.65;;;29.00;78.80;;;;;;5042072;28;20441;-77
2021/08/12 11:09:13;;;;;;;5.57;3.80;;;29.10;77.30;;;;;;5052477;28;20029;-78
2021/08/12 11:11:38;;;;;;;6.13;4.50;;;29.20;77.10;;;;;;5047467;28;20029;-79
2021/08/12 11:14:12;;;;;;;6.07;4.22;;;29.30;77.30;;;;;;5052323;28;20034;-77
2021/08/12 11:16:40;;;;;;;7.43;3.88;;;29.40;76.30;;;;;;5072348;28;20078;-80
2021/08/12 11:19:08;;;;;;;5.53;3.40;;;29.30;75.90;;;;;;5058029;28;20079;-80
2021/08/12 11:21:41;;;;;;;10.55;3.72;;;29.40;75.60;;;;;;5044796;28;20045;-80
2021/08/12 11:24:31;;;;;;;7.38;4.50;;;29.50;75.10;;;;;;5055050;28;20029;-79
2021/08/12 11:26:57;;;;;;;5.32;3.50;;;29.70;75.00;;;;;;5054882;28;20025;-79
2021/08/12 11:29:34;;;;;;;5.05;3.50;;;29.70;74.00;;;;;;5054434;28;20040;-79
2021/08/12 11:32:03;;;;;;;5.22;3.65;;;29.80;73.80;;;;;;5044551;28;20089;-78
2021/08/12 11:34:34;;;;;;;4.38;3.03;;;29.90;72.70;;;;;;5056621;28;20536;-79
2021/08/12 11:37:17;;;;;;;5.65;3.10;;;29.90;69.90;;;;;;5053635;28;20036;-80
2021/08/12 11:39:55;;;;;;;6.32;3.80;;;30.10;68.10;;;;;;5037986;28;20025;-79
2021/08/12 11:42:37;;;;;;;8.70;3.90;;;30.10;68.70;;;;;;5047776;28;20037;-78
2021/08/12 11:45:05;;;;;;;5.50;3.15;;;30.20;69.70;;;;;;5051740;28;20115;-78
2021/08/12 11:47:30;;;;;;;4.43;3.03;;;30.30;66.70;;;;;;5042935;28;20025;-78
2021/08/12 11:49:58;;;;;;;5.22;3.42;;;30.10;65.00;;;;;;5067577;28;20031;-79
2021/08/12 11:52:29;;;;;;;5.68;3.60;;;30.20;65.60;;;;;;5050438;28;20024;-77
2021/08/12 11:55:11;;;;;;;5.75;3.90;;;30.20;67.00;;;;;;5055101;28;20495;-77
2021/08/12 11:57:48;;;;;;;5.32;3.35;;;30.10;66.10;;;;;;5055051;28;20036;-77
2021/08/12 12:00:16;;;;;;;8.43;3.22;;;30.00;65.70;;;;;;5051189;28;20513;-78
2021/08/12 12:03:02;;;;;;;4.50;3.00;;;30.00;66.10;;;;;;5051195;28;20044;-78
2021/08/12 12:05:32;;;;;;;4.50;3.15;;;30.20;64.90;;;;;;5052201;28;20031;-78
2021/08/12 12:08:10;;;;;;;6.10;3.45;;;30.40;65.40;;;;;;5063321;28;20406;-78
2021/08/12 12:10:40;;;;;;;5.32;3.45;;;30.40;65.90;;;;;;5059234;28;20043;-77
2021/08/12 12:13:09;;;;;;;4.63;3.20;;;30.20;67.10;;;;;;5065488;28;20033;-77
2021/08/12 12:15:56;;;;;;;4.88;3.15;;;30.20;66.00;;;;;;5053938;28;20029;-78
2021/08/12 12:18:34;;;;;;;7.10;3.15;;;30.20;64.10;;;;;;5070459;28;20116;-80
2021/08/12 12:21:12;;;;;;;7.03;3.33;;;30.00;63.40;;;;;;5048881;28;20059;-78
2021/08/12 12:23:40;;;;;;;5.03;3.05;;;29.90;63.80;;;;;;5053567;28;20487;-79
2021/08/12 12:26:07;;;;;;;5.65;3.55;;;29.90;65.50;;;;;;5054878;28;20545;-77
2021/08/12 12:28:40;;;;;;;5.22;3.40;;;30.00;64.10;;;;;;5044428;28;20052;-80
2021/08/12 12:31:22;;;;;;;5.57;3.50;;;30.10;64.90;;;;;;5049294;28;20025;-81
2021/08/12 12:33:57;;;;;;;4.78;3.38;;;30.10;63.70;;;;;;5047487;28;20136;-78
2021/08/12 12:36:24;;;;;;;6.22;3.53;;;30.00;62.30;;;;;;5056865;28;20266;-81
2021/08/12 12:38:53;;;;;;;4.63;3.40;;;30.00;64.00;;;;;;5054166;28;20536;-78
2021/08/12 12:41:22;;;;;;;4.50;3.17;;;30.00;64.50;;;;;;5054513;28;20032;-80
2021/08/12 12:43:48;;;;;;;5.55;3.22;;;30.00;62.50;;;;;;5047780;28;20040;-79
2021/08/12 12:46:29;;;;;;;4.93;3.30;;;29.90;59.90;;;;;;5050936;28;20046;-81
2021/08/12 12:48:55;;;;;;;4.38;3.10;;;30.00;62.20;;;;;;5049384;28;20024;-80
2021/08/12 12:51:26;;;;;;;4.80;3.30;;;30.00;61.00;;;;;;5053080;28;20494;-80
2021/08/12 12:53:52;;;;;;;6.20;3.58;;;30.10;60.50;;;;;;5058183;28;20021;-79
2021/08/12 12:56:21;;;;;;;6.65;4.63;;;30.20;61.20;;;;;;5047066;28;20029;-79
2021/08/12 12:58:48;;;;;;;;;;;30.50;62.60;;;;;;5060751;28;20126;-80
2021/08/12 13:01:21;;;;;;;4.25;3.08;;;30.60;63.10;;;;;;5050639;28;19908;-79
2021/08/12 13:04:02;;;;;;;4.82;3.35;;;30.30;61.60;;;;;;5050565;28;20400;-77
2021/08/12 13:06:39;;;;;;;6.03;3.40;;;30.20;62.60;;;;;;5042412;28;20103;-79